Time;durP1;ratioP1;P1;durP2;ratioP2;P2;SDS_P1;SDS_P2;PMS_P1;PMS_P2;Temp;Humidity;BMP_temperature;BMP_pressure;BME280_temperature;BME280_humidity;BME280_pressure;Samples;Min_cycle;Max_cycle;Signal;HPM_P1;HPM_P2
2020/12/11 00:01:05;;;;;;;47.00;23.98;;;3.00;99.90;;;;;;5015775;28;20081;-83
2020/12/11 00:03:31;;;;;;;60.72;26.30;;;2.90;99.90;;;;;;5016476;28;20148;-83
2020/12/11 00:05:58;;;;;;;56.65;25.58;;;2.80;99.90;;;;;;5025999;28;20081;-84
2020/12/11 00:08:24;;;;;;;50.28;23.70;;;2.80;99.90;;;;;;5037778;28;20046;-85
2020/12/11 00:10:51;;;;;;;46.75;22.58;;;2.80;99.90;;;;;;5039049;28;20046;-85
2020/12/11 00:13:18;;;;;;;56.25;24.00;;;2.80;99.90;;;;;;5033469;28;20140;-84
2020/12/11 00:15:44;;;;;;;46.22;22.63;;;2.90;99.90;;;;;;5021988;28;20118;-84
2020/12/11 00:18:11;;;;;;;49.55;22.02;;;3.00;99.90;;;;;;5022065;28;20404;-85
2020/12/11 00:20:37;;;;;;;47.25;21.90;;;2.90;99.90;;;;;;5022941;28;20062;-84
2020/12/11 00:23:04;;;;;;;44.83;20.67;;;2.90;99.90;;;;;;5021722;28;20076;-85
2020/12/11 00:25:31;;;;;;;44.00;20.90;;;3.00;99.90;;;;;;5024122;28;20046;-85
2020/12/11 00:27:57;;;;;;;45.33;21.52;;;3.00;99.90;;;;;;5021612;28;20506;-83
2020/12/11 00:30:23;;;;;;;50.17;22.67;;;3.10;99.90;;;;;;5020740;28;20072;-84
2020/12/11 00:32:50;;;;;;;46.75;22.20;;;3.00;99.90;;;;;;5021236;28;20101;-84
2020/12/11 00:35:16;;;;;;;53.13;22.80;;;3.00;99.90;;;;;;5021391;28;20077;-84
2020/12/11 00:37:43;;;;;;;44.85;21.50;;;2.90;99.90;;;;;;5020983;28;20050;-84
2020/12/11 00:40:09;;;;;;;40.58;19.90;;;2.80;99.90;;;;;;5020841;28;20069;-84
2020/12/11 00:42:35;;;;;;;48.75;20.67;;;2.90;99.90;;;;;;5020797;28;20072;-83
2020/12/11 00:45:02;;;;;;;38.70;21.02;;;2.80;99.90;;;;;;5020031;28;20097;-84
2020/12/11 00:47:28;;;;;;;53.22;22.55;;;2.80;99.90;;;;;;5020725;28;20068;-84
2020/12/11 00:49:55;;;;;;;58.45;23.80;;;2.80;99.90;;;;;;5020576;28;20058;-84
2020/12/11 00:52:21;;;;;;;58.45;23.98;;;2.70;99.90;;;;;;5020109;28;20529;-84
2020/12/11 00:54:48;;;;;;;68.32;25.45;;;2.60;99.90;;;;;;5019864;28;20080;-84
2020/12/11 00:57:14;;;;;;;47.45;21.65;;;2.50;99.90;;;;;;5019962;28;20089;-84
2020/12/11 00:59:40;;;;;;;43.95;20.55;;;2.50;99.90;;;;;;5020279;28;20145;-84
2020/12/11 01:02:07;;;;;;;45.85;20.75;;;2.70;99.90;;;;;;5019629;28;20117;-84
2020/12/11 01:04:33;;;;;;;36.75;18.33;;;2.70;99.90;;;;;;5019067;28;20054;-84
2020/12/11 01:06:59;;;;;;;33.35;17.23;;;2.70;99.90;;;;;;5019738;28;20526;-83
2020/12/11 01:09:26;;;;;;;33.58;17.50;;;2.80;99.90;;;;;;5019728;28;20478;-83
2020/12/11 01:11:52;;;;;;;32.78;17.17;;;2.80;99.90;;;;;;5019198;28;20387;-83
2020/12/11 01:14:19;;;;;;;31.42;16.73;;;2.90;99.90;;;;;;5018814;28;20136;-83
2020/12/11 01:16:45;;;;;;;32.15;17.75;;;2.90;99.90;;;;;;5019212;28;20054;-84
2020/12/11 01:19:12;;;;;;;33.05;17.00;;;2.90;99.90;;;;;;5018700;28;20145;-83
2020/12/11 01:21:38;;;;;;;36.30;18.70;;;3.00;99.90;;;;;;5018317;28;20054;-83
2020/12/11 01:24:05;;;;;;;39.40;19.08;;;3.00;99.90;;;;;;5019516;28;20510;-83
2020/12/11 01:26:31;;;;;;;42.35;17.02;;;2.90;99.90;;;;;;5018246;28;20422;-83
2020/12/11 01:28:57;;;;;;;37.65;17.35;;;2.70;99.90;;;;;;5018389;28;20058;-83
2020/12/11 01:31:23;;;;;;;32.25;15.32;;;2.60;99.90;;;;;;5018008;28;20092;-83
2020/12/11 01:33:50;;;;;;;30.65;14.05;;;2.60;99.90;;;;;;5018264;28;20061;-83
2020/12/11 01:36:24;;;;;;;25.67;12.85;;;2.70;99.90;;;;;;5017977;28;20058;-83
2020/12/11 01:38:50;;;;;;;33.72;14.93;;;2.80;99.90;;;;;;5019280;28;20050;-83
2020/12/11 01:41:19;;;;;;;33.53;16.17;;;2.80;99.90;;;;;;5019361;28;20058;-83
2020/12/11 01:43:45;;;;;;;35.22;16.55;;;2.70;99.90;;;;;;5017447;28;20049;-83
2020/12/11 01:46:18;;;;;;;42.28;19.65;;;2.80;99.90;;;;;;5017257;28;20108;-83
2020/12/11 01:48:47;;;;;;;30.23;13.95;;;2.80;99.90;;;;;;5017657;28;20132;-83
2020/12/11 01:51:13;;;;;;;30.75;13.20;;;2.80;99.90;;;;;;5017411;28;20053;-83
2020/12/11 01:53:46;;;;;;;26.40;12.82;;;2.80;99.90;;;;;;5017960;28;20169;-83
2020/12/11 01:56:17;;;;;;;26.65;11.63;;;2.80;99.90;;;;;;5015369;28;20092;-82
2020/12/11 01:58:46;;;;;;;24.17;11.40;;;2.70;99.90;;;;;;5012345;28;20084;-83
2020/12/11 02:01:16;;;;;;;30.52;12.00;;;2.70;99.90;;;;;;5012395;28;20133;-82
2020/12/11 02:03:44;;;;;;;30.48;11.73;;;2.60;99.90;;;;;;5012067;28;20112;-82
2020/12/11 02:06:11;;;;;;;30.55;12.35;;;2.60;99.90;;;;;;5012379;28;20057;-83
2020/12/11 02:08:38;;;;;;;27.40;12.60;;;2.60;99.90;;;;;;5014077;28;20080;-83
2020/12/11 02:11:15;;;;;;;29.40;12.10;;;2.60;99.90;;;;;;5012103;28;20046;-83
2020/12/11 02:13:41;;;;;;;26.48;11.38;;;2.60;99.90;;;;;;5019368;28;20082;-84
2020/12/11 02:16:09;;;;;;;28.85;12.80;;;2.80;99.90;;;;;;5019534;28;20049;-84
2020/12/11 02:18:36;;;;;;;31.38;12.13;;;2.80;99.90;;;;;;5018265;28;20050;-84
2020/12/11 02:21:02;;;;;;;26.85;12.27;;;2.80;99.90;;;;;;5019913;28;20065;-84
2020/12/11 02:23:28;;;;;;;26.67;12.05;;;2.90;99.90;;;;;;5018276;28;20490;-84
2020/12/11 02:25:55;;;;;;;28.38;13.07;;;2.90;99.90;;;;;;5019414;28;20065;-84
2020/12/11 02:28:21;;;;;;;28.45;13.18;;;2.90;99.90;;;;;;5017657;28;20080;-83
2020/12/11 02:30:47;;;;;;;29.60;12.88;;;2.90;99.90;;;;;;5017105;28;20096;-83
2020/12/11 02:33:13;;;;;;;26.77;12.70;;;2.80;99.90;;;;;;5019229;28;20142;-84
2020/12/11 02:35:43;;;;;;;26.50;12.75;;;2.80;99.90;;;;;;5020675;28;20084;-83
2020/12/11 02:38:10;;;;;;;27.05;13.40;;;2.90;99.90;;;;;;5020448;28;20502;-84
2020/12/11 02:40:48;;;;;;;27.08;13.07;;;2.80;99.90;;;;;;5019830;28;20146;-83
2020/12/11 02:43:15;;;;;;;25.98;12.68;;;2.90;99.90;;;;;;5020451;28;20057;-83
2020/12/11 02:45:44;;;;;;;21.92;11.57;;;2.90;99.90;;;;;;5019683;28;20504;-83
2020/12/11 02:48:11;;;;;;;24.33;11.02;;;2.90;99.90;;;;;;5021509;28;20449;-83
2020/12/11 02:50:38;;;;;;;25.67;12.90;;;2.90;99.90;;;;;;5020314;28;20502;-83
2020/12/11 02:53:05;;;;;;;29.58;13.43;;;2.90;99.90;;;;;;5019426;28;20046;-83
2020/12/11 02:55:31;;;;;;;27.80;13.65;;;2.90;99.90;;;;;;5021255;28;20104;-83
2020/12/11 02:57:57;;;;;;;27.13;13.45;;;2.80;99.90;;;;;;5019095;28;20050;-83
2020/12/11 03:00:24;;;;;;;25.08;12.45;;;2.80;99.90;;;;;;5018998;28;20057;-83
2020/12/11 03:02:50;;;;;;;26.42;13.43;;;2.80;99.90;;;;;;5019262;28;20097;-83
2020/12/11 03:05:17;;;;;;;27.85;14.00;;;2.80;99.90;;;;;;5019160;28;20517;-83
2020/12/11 03:07:43;;;;;;;29.98;14.05;;;2.80;99.90;;;;;;5018443;28;20074;-83
2020/12/11 03:10:10;;;;;;;30.92;14.45;;;2.80;99.90;;;;;;5018814;28;20073;-83
2020/12/11 03:12:36;;;;;;;32.83;15.63;;;2.80;99.90;;;;;;5019345;28;20502;-83
2020/12/11 03:15:03;;;;;;;35.47;15.70;;;2.80;99.90;;;;;;5019208;28;20050;-83
2020/12/11 03:17:29;;;;;;;33.25;15.93;;;2.80;99.90;;;;;;5018640;28;20049;-83
2020/12/11 03:19:56;;;;;;;32.60;14.40;;;2.70;99.90;;;;;;5018161;28;20128;-83
2020/12/11 03:22:22;;;;;;;31.30;14.68;;;2.60;99.90;;;;;;5017735;28;20050;-83
2020/12/11 03:24:49;;;;;;;30.23;14.80;;;2.50;99.90;;;;;;5019295;28;20056;-82
2020/12/11 03:27:15;;;;;;;33.22;15.32;;;2.60;99.90;;;;;;5019246;28;20523;-83
2020/12/11 03:29:41;;;;;;;33.40;14.85;;;2.60;99.90;;;;;;5018143;28;20507;-83
2020/12/11 03:32:08;;;;;;;41.35;16.90;;;2.40;99.90;;;;;;5018641;28;20072;-82
2020/12/11 03:34:34;;;;;;;39.65;17.02;;;2.50;99.90;;;;;;5017858;28;20471;-84
2020/12/11 03:37:00;;;;;;;40.30;17.60;;;2.50;99.90;;;;;;5017550;28;20050;-84
2020/12/11 03:39:27;;;;;;;42.10;17.52;;;2.50;99.90;;;;;;5018218;28;20050;-83
2020/12/11 03:41:55;;;;;;;37.50;16.90;;;2.50;99.90;;;;;;5017616;28;20062;-83
2020/12/11 03:44:21;;;;;;;46.85;19.48;;;2.50;99.90;;;;;;5017224;28;20056;-82
2020/12/11 03:46:48;;;;;;;44.35;18.73;;;2.50;99.90;;;;;;5016468;28;20050;-82
2020/12/11 03:49:14;;;;;;;51.33;19.70;;;2.50;99.90;;;;;;5014476;28;20063;-83
2020/12/11 03:51:41;;;;;;;49.28;19.50;;;2.50;99.90;;;;;;5014678;28;20499;-82
2020/12/11 03:54:07;;;;;;;40.63;17.38;;;2.50;99.90;;;;;;5013803;28;20530;-83
2020/12/11 03:56:33;;;;;;;47.78;19.25;;;2.50;99.90;;;;;;5016090;28;20078;-83
2020/12/11 03:59:00;;;;;;;42.33;18.50;;;2.50;99.90;;;;;;5014654;28;20522;-83
2020/12/11 04:01:26;;;;;;;45.28;19.40;;;2.50;99.90;;;;;;5017480;28;20533;-84
2020/12/11 04:03:54;;;;;;;40.75;18.20;;;2.60;99.90;;;;;;5022726;28;20072;-84
2020/12/11 04:06:21;;;;;;;44.55;19.00;;;2.60;99.90;;;;;;5022619;28;20070;-84
2020/12/11 04:08:47;;;;;;;35.42;16.98;;;2.60;99.90;;;;;;5020495;28;20117;-84
2020/12/11 04:11:14;;;;;;;41.20;17.85;;;2.60;99.90;;;;;;5021298;28;20069;-83
2020/12/11 04:13:41;;;;;;;41.88;17.50;;;2.50;99.90;;;;;;5020491;28;20078;-83
2020/12/11 04:16:09;;;;;;;44.60;19.27;;;2.40;99.90;;;;;;5019489;28;20060;-84
2020/12/11 04:18:36;;;;;;;41.00;17.45;;;2.40;99.90;;;;;;5018810;28;20083;-84
2020/12/11 04:21:02;;;;;;;38.13;16.60;;;2.30;99.90;;;;;;5018160;28;20054;-83
2020/12/11 04:23:29;;;;;;;42.38;17.42;;;2.50;99.90;;;;;;5019939;28;20410;-82
2020/12/11 04:25:55;;;;;;;38.28;15.35;;;2.60;99.90;;;;;;5018720;28;20518;-83
2020/12/11 04:28:22;;;;;;;38.40;16.45;;;2.60;99.90;;;;;;5017967;28;20050;-83
2020/12/11 04:30:49;;;;;;;31.45;15.05;;;2.60;99.90;;;;;;5017655;28;20073;-84
2020/12/11 04:33:15;;;;;;;32.83;14.77;;;2.70;99.90;;;;;;5016824;28;20482;-83
2020/12/11 04:35:42;;;;;;;38.03;16.27;;;2.60;99.90;;;;;;5017286;28;20050;-83
2020/12/11 04:38:08;;;;;;;34.20;16.00;;;2.60;99.90;;;;;;5018146;28;20073;-83
2020/12/11 04:40:35;;;;;;;32.95;14.80;;;2.60;99.90;;;;;;5016639;28;20046;-83
2020/12/11 04:43:04;;;;;;;33.72;15.45;;;2.70;99.90;;;;;;5016713;28;20132;-83
2020/12/11 04:45:31;;;;;;;29.38;13.85;;;2.60;99.90;;;;;;5017236;28;20076;-83
2020/12/11 04:47:57;;;;;;;26.52;13.18;;;2.60;99.90;;;;;;5016383;28;20074;-83
2020/12/11 04:50:24;;;;;;;33.80;15.02;;;2.60;99.90;;;;;;5015810;28;20077;-83
2020/12/11 04:52:50;;;;;;;33.00;14.45;;;2.70;99.90;;;;;;5015727;28;20137;-83
2020/12/11 04:55:19;;;;;;;33.13;13.90;;;2.60;99.90;;;;;;5014479;28;20145;-83
2020/12/11 04:57:48;;;;;;;31.42;14.77;;;2.70;99.90;;;;;;5016419;28;20109;-84
2020/12/11 05:00:16;;;;;;;33.95;14.32;;;2.70;99.90;;;;;;5015318;28;20054;-83
2020/12/11 05:02:44;;;;;;;29.23;14.25;;;2.70;99.90;;;;;;5015584;28;20077;-83
2020/12/11 05:05:12;;;;;;;29.55;13.88;;;2.70;99.90;;;;;;5015415;28;20089;-83
2020/12/11 05:07:39;;;;;;;34.42;14.88;;;2.70;99.90;;;;;;5015033;28;20089;-83
2020/12/11 05:10:06;;;;;;;28.25;13.23;;;2.70;99.90;;;;;;5015004;28;20145;-83
2020/12/11 05:12:33;;;;;;;32.28;14.45;;;2.70;99.90;;;;;;5017636;28;20111;-82
2020/12/11 05:15:04;;;;;;;36.35;15.07;;;2.60;99.90;;;;;;5019186;28;20085;-83
2020/12/11 05:17:33;;;;;;;36.75;15.13;;;2.40;99.90;;;;;;5018266;28;20085;-83
2020/12/11 05:20:00;;;;;;;34.15;14.90;;;2.40;99.90;;;;;;5018607;28;20050;-85
2020/12/11 05:22:31;;;;;;;30.92;13.93;;;2.30;99.90;;;;;;5019178;28;20050;-83
2020/12/11 05:24:58;;;;;;;35.42;14.95;;;2.40;99.90;;;;;;5018692;28;20494;-84
2020/12/11 05:27:24;;;;;;;33.08;13.75;;;2.50;99.90;;;;;;5017260;28;20477;-83
2020/12/11 05:30:19;;;;;;;33.20;14.73;;;2.60;99.90;;;;;;5017662;28;20049;-83
2020/12/11 05:32:48;;;;;;;35.22;14.63;;;2.50;99.90;;;;;;5018151;28;20501;-83
2020/12/11 05:35:17;;;;;;;34.72;14.43;;;2.60;99.90;;;;;;5018307;28;20057;-83
2020/12/11 05:38:05;;;;;;;35.35;15.27;;;2.60;99.90;;;;;;5016346;28;20115;-83
2020/12/11 05:40:40;;;;;;;38.40;15.80;;;2.60;99.90;;;;;;5012838;28;20481;-83
2020/12/11 05:43:14;;;;;;;37.63;15.10;;;2.30;99.90;;;;;;5013814;28;20058;-83
2020/12/11 05:45:57;;;;;;;39.13;15.05;;;2.30;99.90;;;;;;5012670;28;20081;-83
2020/12/11 05:48:35;;;;;;;27.52;13.55;;;2.20;99.90;;;;;;5013001;28;20052;-83
2020/12/11 05:51:15;;;;;;;32.90;14.68;;;2.20;99.90;;;;;;5015447;28;20069;-85
2020/12/11 05:53:42;;;;;;;32.03;13.82;;;2.20;99.90;;;;;;5019499;28;20050;-85
2020/12/11 05:56:09;;;;;;;35.92;15.18;;;2.30;99.90;;;;;;5020661;28;20077;-84
2020/12/11 05:58:36;;;;;;;28.80;13.68;;;2.30;99.90;;;;;;5019901;28;20049;-84
2020/12/11 06:01:03;;;;;;;216.60;124.95;;;2.30;99.90;;;;;;5018374;28;20450;-84
2020/12/11 06:03:29;;;;;;;38.85;20.60;;;2.20;99.90;;;;;;5015817;28;20066;-84
2020/12/11 06:05:57;;;;;;;35.88;19.65;;;2.30;99.90;;;;;;5014795;28;20073;-84
2020/12/11 06:08:26;;;;;;;27.63;14.27;;;2.40;99.90;;;;;;5013945;28;20506;-84
2020/12/11 06:10:53;;;;;;;31.05;13.95;;;2.40;99.90;;;;;;5014909;28;20069;-84
2020/12/11 06:13:47;;;;;;;28.98;14.02;;;2.50;99.90;;;;;;5014650;28;20286;-84
2020/12/11 06:16:15;;;;;;;22.70;11.32;;;2.50;99.90;;;;;;5014244;28;20521;-84
2020/12/11 06:18:44;;;;;;;23.98;13.15;;;2.50;99.90;;;;;;5014479;28;20054;-84
2020/12/11 06:21:15;;;;;;;26.85;13.93;;;2.50;99.90;;;;;;5014395;28;20046;-84
2020/12/11 06:23:41;;;;;;;22.95;12.70;;;2.60;99.90;;;;;;5014208;28;20552;-84
2020/12/11 06:26:13;;;;;;;26.85;12.15;;;2.60;99.90;;;;;;5013922;28;20514;-84
2020/12/11 06:28:42;;;;;;;22.05;11.88;;;2.70;99.90;;;;;;5014327;28;20053;-84
2020/12/11 06:31:12;;;;;;;19.35;10.32;;;2.60;99.90;;;;;;5013936;28;20042;-84
2020/12/11 06:33:42;;;;;;;22.25;11.07;;;2.60;99.90;;;;;;5012657;28;20053;-84
2020/12/11 06:36:08;;;;;;;14.23;8.77;;;2.60;99.90;;;;;;5013611;28;20057;-84
2020/12/11 06:38:58;;;;;;;11.82;7.45;;;2.50;99.90;;;;;;5013693;28;20132;-84
2020/12/11 06:41:27;;;;;;;11.02;7.88;;;2.50;99.90;;;;;;5013796;28;20065;-84
2020/12/11 06:44:14;;;;;;;11.77;8.10;;;2.50;99.90;;;;;;5013139;28;20126;-83
2020/12/11 06:46:40;;;;;;;59.90;27.23;;;2.60;99.90;;;;;;5013263;28;20146;-83
2020/12/11 06:49:08;;;;;;;18.23;10.88;;;2.60;99.90;;;;;;5013509;28;20050;-83
2020/12/11 06:51:44;;;;;;;10.88;7.72;;;2.60;99.90;;;;;;5013440;28;20081;-84
2020/12/11 06:54:11;;;;;;;11.07;7.35;;;2.60;99.90;;;;;;5013028;28;20081;-84
2020/12/11 06:57:03;;;;;;;11.30;8.00;;;2.60;99.90;;;;;;5013350;28;20050;-84
2020/12/11 06:59:39;;;;;;;9.15;7.40;;;2.70;99.90;;;;;;5010732;28;20062;-84
2020/12/11 07:02:08;;;;;;;11.60;8.02;;;2.70;99.90;;;;;;5013304;28;20096;-84
2020/12/11 07:04:39;;;;;;;11.45;7.72;;;2.70;99.90;;;;;;5012732;28;20144;-84
2020/12/11 07:07:06;;;;;;;9.75;7.90;;;2.80;99.90;;;;;;5013190;28;20045;-83
2020/12/11 07:09:40;;;;;;;10.02;8.07;;;2.80;99.90;;;;;;5013243;28;20046;-84
2020/12/11 07:12:06;;;;;;;12.18;8.50;;;2.80;99.90;;;;;;5013077;28;20085;-83
2020/12/11 07:14:33;;;;;;;10.15;7.70;;;2.90;99.90;;;;;;5013559;28;20165;-84
2020/12/11 07:17:00;;;;;;;11.48;7.65;;;2.90;99.90;;;;;;5013421;28;20081;-84
2020/12/11 07:19:33;;;;;;;10.43;8.10;;;2.80;99.90;;;;;;5014911;28;20074;-84
2020/12/11 07:22:01;;;;;;;12.13;9.07;;;2.90;99.90;;;;;;5016168;28;20049;-83
2020/12/11 07:24:30;;;;;;;12.60;8.70;;;2.90;99.90;;;;;;5016001;28;20049;-83
2020/12/11 07:27:05;;;;;;;12.65;8.93;;;2.80;99.90;;;;;;5015960;28;20551;-82
2020/12/11 07:29:31;;;;;;;13.15;9.48;;;2.80;99.90;;;;;;5016153;28;20074;-83
2020/12/11 07:31:58;;;;;;;12.75;9.13;;;2.70;99.90;;;;;;5014870;28;20129;-84
2020/12/11 07:34:26;;;;;;;16.48;10.60;;;2.80;99.90;;;;;;5016125;28;20108;-84
2020/12/11 07:36:54;;;;;;;19.02;11.77;;;2.70;99.90;;;;;;5016038;28;20077;-83
2020/12/11 07:39:22;;;;;;;17.23;10.95;;;2.60;99.90;;;;;;5015841;28;20143;-83
2020/12/11 07:41:50;;;;;;;18.38;10.40;;;2.60;99.90;;;;;;5016044;28;20056;-83
2020/12/11 07:44:27;;;;;;;15.60;10.95;;;2.70;99.90;;;;;;5016715;28;20086;-83
2020/12/11 07:46:55;;;;;;;15.57;11.25;;;2.50;99.90;;;;;;5018347;28;20537;-84
2020/12/11 07:49:42;;;;;;;32.67;21.10;;;2.50;99.90;;;;;;5017505;28;20046;-84
2020/12/11 07:52:09;;;;;;;36.35;25.95;;;2.50;99.90;;;;;;5016249;28;20169;-84
2020/12/11 07:54:37;;;;;;;24.10;14.30;;;2.50;99.90;;;;;;5017405;28;20061;-84
2020/12/11 07:57:17;;;;;;;13.95;9.02;;;2.50;99.90;;;;;;5016837;28;20061;-84
2020/12/11 07:59:58;;;;;;;17.20;10.73;;;2.60;99.90;;;;;;5016704;28;20050;-84
2020/12/11 08:02:25;;;;;;;15.00;9.35;;;2.60;99.90;;;;;;5016716;28;20077;-83
2020/12/11 08:04:52;;;;;;;15.77;10.80;;;2.80;99.90;;;;;;5016541;28;20054;-83
2020/12/11 08:07:29;;;;;;;27.00;15.93;;;2.70;99.90;;;;;;5017112;28;20490;-84
2020/12/11 08:10:08;;;;;;;15.73;10.73;;;2.70;99.90;;;;;;5016281;28;20082;-84
2020/12/11 08:12:34;;;;;;;16.90;10.18;;;2.70;99.90;;;;;;5016426;28;20100;-83
2020/12/11 08:15:00;;;;;;;13.40;9.85;;;2.70;99.90;;;;;;5016011;28;20077;-84
2020/12/11 08:17:29;;;;;;;13.05;9.63;;;2.70;99.90;;;;;;5016019;28;20057;-84
2020/12/11 08:20:05;;;;;;;14.32;10.10;;;2.70;99.90;;;;;;5016508;28;20498;-84
2020/12/11 08:22:34;;;;;;;15.93;11.10;;;2.70;99.90;;;;;;5016391;28;20513;-84
2020/12/11 08:25:16;;;;;;;14.80;10.73;;;2.70;99.90;;;;;;5016266;28;20053;-83
2020/12/11 08:27:43;;;;;;;15.95;10.07;;;2.60;99.90;;;;;;5015983;28;20046;-84
2020/12/11 08:30:14;;;;;;;13.40;9.88;;;2.60;99.90;;;;;;5014571;28;20128;-83
2020/12/11 08:32:45;;;;;;;18.90;11.32;;;2.60;99.90;;;;;;5014825;28;20085;-82
2020/12/11 08:35:14;;;;;;;15.45;10.13;;;2.60;99.90;;;;;;5015402;28;20617;-84
2020/12/11 08:37:57;;;;;;;14.32;10.10;;;2.60;99.90;;;;;;5014376;28;20049;-84
2020/12/11 08:40:25;;;;;;;18.48;10.60;;;2.60;99.90;;;;;;5015218;28;20119;-83
2020/12/11 08:46:11;;;;;;;15.38;9.50;;;2.50;99.90;;;;;;5014878;28;20129;-83
2020/12/11 08:51:35;;;;;;;14.52;9.60;;;2.60;99.90;;;;;;5014911;28;20092;-84
2020/12/11 08:54:05;;;;;;;14.35;9.23;;;2.60;99.90;;;;;;5014805;28;20482;-83
2020/12/11 08:56:45;;;;;;;14.32;9.90;;;2.60;99.90;;;;;;5013742;28;20050;-84
2020/12/11 08:59:12;;;;;;;16.88;10.02;;;2.60;99.90;;;;;;5014839;28;20046;-84
2020/12/11 09:01:42;;;;;;;14.57;9.43;;;2.50;99.90;;;;;;5014799;28;20050;-83
2020/12/11 09:04:08;;;;;;;14.38;9.45;;;2.50;99.90;;;;;;5013914;28;20081;-83
2020/12/11 09:06:35;;;;;;;14.85;9.38;;;2.50;99.90;;;;;;5014258;28;20137;-83
2020/12/11 09:09:02;;;;;;;16.95;9.88;;;2.50;99.90;;;;;;5014298;28;20046;-83
2020/12/11 09:11:30;;;;;;;14.15;9.57;;;2.50;99.90;;;;;;5014614;28;20077;-83
2020/12/11 09:13:56;;;;;;;17.52;10.82;;;2.50;99.90;;;;;;5014519;28;20049;-83
2020/12/11 09:16:23;;;;;;;17.75;10.80;;;2.50;99.90;;;;;;5014478;28;20069;-82
2020/12/11 09:18:49;;;;;;;24.88;14.95;;;2.50;99.90;;;;;;5014258;28;20064;-83
2020/12/11 09:21:15;;;;;;;19.75;11.88;;;2.50;99.90;;;;;;5013813;28;20050;-84
2020/12/11 09:23:41;;;;;;;25.45;10.23;;;2.60;99.90;;;;;;5014036;28;20081;-84
2020/12/11 09:26:08;;;;;;;14.48;10.45;;;2.60;99.90;;;;;;5014106;28;20045;-83
2020/12/11 09:28:34;;;;;;;17.92;12.02;;;2.60;99.90;;;;;;5014115;28;20136;-83
2020/12/11 09:31:01;;;;;;;18.77;11.60;;;2.40;99.90;;;;;;5013881;28;20417;-83
2020/12/11 09:33:29;;;;;;;18.58;11.70;;;2.40;99.90;;;;;;5014195;28;20395;-83
2020/12/11 09:35:55;;;;;;;16.80;10.85;;;2.40;99.90;;;;;;5014366;28;20046;-85
2020/12/11 09:38:22;;;;;;;15.23;11.00;;;2.40;99.90;;;;;;5016890;28;20045;-84
2020/12/11 09:41:00;;;;;;;15.95;10.35;;;2.50;99.90;;;;;;5015774;28;20096;-84
2020/12/11 09:44:01;;;;;;;17.25;11.10;;;2.40;99.90;;;;;;5015578;28;20541;-84
2020/12/11 09:46:39;;;;;;;30.63;13.38;;;2.40;99.90;;;;;;5015329;28;20052;-84
2020/12/11 09:49:14;;;;;;;29.75;13.63;;;2.40;99.90;;;;;;5015183;28;20041;-84
2020/12/11 09:54:31;;;;;;;16.70;10.75;;;2.40;99.90;;;;;;5015999;28;20418;-84
2020/12/11 09:56:57;;;;;;;27.60;13.38;;;2.40;99.90;;;;;;5015763;28;20544;-83
2020/12/11 09:59:35;;;;;;;16.92;10.93;;;2.40;99.90;;;;;;5014893;28;20050;-84
2020/12/11 10:02:13;;;;;;;17.55;10.65;;;2.50;99.90;;;;;;5017332;28;20383;-83
2020/12/11 10:04:40;;;;;;;14.35;10.20;;;2.50;99.90;;;;;;5015483;28;20144;-84
2020/12/11 10:07:06;;;;;;;17.13;10.70;;;2.50;99.90;;;;;;5014953;28;20499;-83
2020/12/11 10:09:33;;;;;;;16.98;9.73;;;2.50;99.90;;;;;;5016464;28;20088;-83
2020/12/11 10:12:02;;;;;;;15.63;10.43;;;2.60;99.90;;;;;;5014976;28;20258;-83
2020/12/11 10:14:31;;;;;;;15.90;10.43;;;2.50;99.90;;;;;;5015917;28;20073;-83
2020/12/11 10:16:59;;;;;;;15.35;10.35;;;2.50;99.90;;;;;;5013981;28;20136;-83
2020/12/11 10:19:25;;;;;;;14.32;9.80;;;2.50;99.90;;;;;;5013697;28;20057;-83
2020/12/11 10:21:53;;;;;;;14.80;10.40;;;2.60;99.90;;;;;;5015236;28;20042;-84
2020/12/11 10:24:21;;;;;;;15.60;10.23;;;2.60;99.90;;;;;;5015200;28;20045;-83
2020/12/11 10:26:47;;;;;;;16.67;11.18;;;2.50;99.90;;;;;;5014799;28;20050;-83
2020/12/11 10:29:15;;;;;;;17.70;10.80;;;2.50;99.90;;;;;;5014953;28;20172;-83
2020/12/11 10:31:42;;;;;;;15.20;10.18;;;2.50;99.90;;;;;;5014472;28;20061;-83
2020/12/11 10:34:16;;;;;;;16.10;10.10;;;2.50;99.90;;;;;;5015705;28;20058;-83
2020/12/11 10:36:43;;;;;;;20.00;11.18;;;2.50;99.90;;;;;;5033140;28;20033;-81
2020/12/11 10:39:10;;;;;;;14.70;9.65;;;2.50;99.90;;;;;;5037249;28;20038;-82
2020/12/11 10:41:39;;;;;;;17.73;10.55;;;2.60;99.90;;;;;;5037168;28;20046;-83
2020/12/11 10:44:06;;;;;;;15.88;10.70;;;2.60;99.90;;;;;;5032820;28;20042;-83
2020/12/11 10:46:32;;;;;;;19.70;11.43;;;2.60;99.90;;;;;;5019873;28;20080;-83
2020/12/11 10:48:59;;;;;;;16.35;9.85;;;2.50;99.90;;;;;;5019954;28;20077;-83
2020/12/11 10:51:25;;;;;;;13.98;9.35;;;2.60;99.90;;;;;;5020336;28;20125;-83
2020/12/11 10:53:51;;;;;;;15.35;10.15;;;2.60;99.90;;;;;;5021624;28;20045;-83
2020/12/11 10:56:19;;;;;;;14.18;9.73;;;2.60;99.90;;;;;;5023881;28;20046;-83
2020/12/11 10:58:47;;;;;;;16.23;10.20;;;2.60;99.90;;;;;;5024217;28;20042;-83
2020/12/11 11:01:14;;;;;;;14.35;9.43;;;2.60;99.90;;;;;;5022005;28;20092;-83
2020/12/11 11:03:41;;;;;;;13.88;9.48;;;2.60;99.90;;;;;;5018460;28;20060;-82
2020/12/11 11:06:23;;;;;;;14.25;9.48;;;2.60;99.90;;;;;;5016876;28;20049;-82
2020/12/11 11:11:24;;;;;;;13.98;9.85;;;2.70;99.90;;;;;;5023569;28;20046;-83
2020/12/11 11:19:26;;;;;;;;;;;2.70;99.90;;;;;;4993776;28;20046;-83
2020/12/11 11:22:09;;;;;;;16.80;10.63;;;2.70;99.90;;;;;;5021057;28;19960;-83
2020/12/11 11:27:32;;;;;;;16.85;10.40;;;2.80;99.90;;;;;;5022271;28;20108;-82
2020/12/11 11:29:58;;;;;;;17.80;10.80;;;2.70;99.90;;;;;;5021389;28;20046;-83
2020/12/11 11:32:26;;;;;;;15.43;10.70;;;2.70;99.90;;;;;;5021370;28;20046;-83
2020/12/11 11:34:52;;;;;;;19.63;11.82;;;2.70;99.90;;;;;;5021116;28;20085;-83
2020/12/11 11:37:18;;;;;;;18.15;11.10;;;2.80;99.90;;;;;;5021226;28;20081;-83
2020/12/11 11:39:45;;;;;;;16.88;11.40;;;2.80;99.90;;;;;;5020436;28;20134;-83
2020/12/11 11:42:11;;;;;;;16.15;11.05;;;2.80;99.90;;;;;;5021033;28;20084;-83
2020/12/11 11:44:46;;;;;;;17.83;11.30;;;2.80;99.90;;;;;;5021702;28;20461;-83
2020/12/11 11:47:12;;;;;;;18.40;10.98;;;2.70;99.90;;;;;;5019166;28;20050;-83
2020/12/11 11:50:05;;;;;;;20.58;11.40;;;2.80;99.90;;;;;;5021200;28;20201;-83
2020/12/11 11:52:35;;;;;;;16.60;11.10;;;2.90;99.90;;;;;;5020968;28;20498;-82
2020/12/11 11:55:04;;;;;;;15.65;10.63;;;2.90;99.90;;;;;;5020727;28;20100;-83
2020/12/11 11:57:30;;;;;;;15.25;10.30;;;3.00;99.90;;;;;;5021054;28;20076;-83
2020/12/11 11:59:57;;;;;;;15.13;10.88;;;3.10;99.90;;;;;;5020590;28;20054;-83
2020/12/11 12:02:23;;;;;;;15.05;10.25;;;3.00;99.90;;;;;;5020315;28;20057;-83
2020/12/11 12:04:50;;;;;;;16.52;10.77;;;3.10;99.90;;;;;;5020030;28;20057;-82
2020/12/11 12:07:16;;;;;;;15.38;10.38;;;3.00;99.90;;;;;;5019634;28;20108;-83
2020/12/11 12:09:43;;;;;;;16.45;10.25;;;3.00;99.90;;;;;;5019342;28;20057;-83
2020/12/11 12:12:10;;;;;;;18.35;11.32;;;3.10;99.90;;;;;;5019481;28;20053;-83
2020/12/11 12:14:36;;;;;;;19.45;11.13;;;3.00;99.90;;;;;;5019427;28;20056;-83
2020/12/11 12:17:05;;;;;;;20.15;12.23;;;3.10;99.90;;;;;;5020124;28;20062;-83
2020/12/11 12:19:38;;;;;;;21.15;12.40;;;3.00;99.90;;;;;;5017413;28;20498;-83
2020/12/11 12:30:08;;;;;;;16.83;11.43;;;2.90;99.90;;;;;;5019664;28;20050;-83
2020/12/11 12:32:48;;;;;;;23.10;13.23;;;3.00;99.90;;;;;;5018268;28;20050;-83
2020/12/11 12:35:36;;;;;;;19.88;12.63;;;3.00;99.90;;;;;;5018723;28;20057;-83
2020/12/11 12:38:02;;;;;;;17.63;11.98;;;3.00;99.90;;;;;;5019676;28;20073;-83
2020/12/11 12:42:14;;;;;;;18.75;12.13;;;3.10;99.90;;;;;;5018121;28;20124;-83
2020/12/11 12:43:23;;;;;;;15.93;11.18;;;3.20;99.90;;;;;;5019114;28;20491;-83
2020/12/11 12:45:49;;;;;;;15.40;10.88;;;3.00;99.90;;;;;;5016769;28;20140;-84
2020/12/11 12:48:15;;;;;;;18.20;11.75;;;3.00;99.90;;;;;;5016243;28;20085;-83
2020/12/11 12:50:41;;;;;;;17.67;11.82;;;2.90;99.90;;;;;;5017816;28;20474;-83
2020/12/11 12:53:08;;;;;;;18.30;12.07;;;2.90;99.90;;;;;;5017349;28;20554;-83
2020/12/11 12:58:27;;;;;;;22.52;12.15;;;3.00;99.90;;;;;;5006632;28;20056;-83
2020/12/11 13:01:18;;;;;;;18.88;12.20;;;3.00;99.90;;;;;;5013858;28;20530;-83
2020/12/11 13:03:59;;;;;;;19.85;11.85;;;3.00;99.90;;;;;;5014498;28;20133;-83
2020/12/11 13:06:25;;;;;;;25.13;11.50;;;3.00;99.90;;;;;;5014464;28;20137;-82
2020/12/11 13:08:51;;;;;;;24.98;13.18;;;2.90;99.90;;;;;;5013432;28;20576;-82
2020/12/11 13:11:18;;;;;;;19.92;11.60;;;2.80;99.90;;;;;;5014326;28;20077;-82
2020/12/11 13:13:44;;;;;;;23.73;12.23;;;2.90;99.90;;;;;;5014587;28;20058;-83
2020/12/11 13:16:10;;;;;;;23.63;12.00;;;2.80;99.90;;;;;;5013160;28;20062;-82
2020/12/11 13:18:37;;;;;;;28.20;12.60;;;2.90;99.90;;;;;;5016300;28;20141;-84